createdAt,value
2023-04-11T00:00:54.918Z,63.72
2023-04-11T00:03:22.589Z,63.85
2023-04-11T00:05:49.765Z,63.91
2023-04-11T00:08:16.643Z,64.15
2023-04-11T00:10:45.342Z,64.06
2023-04-11T00:13:12.551Z,64.30
2023-04-11T00:15:39.480Z,64.21
2023-04-11T00:18:07.019Z,64.14
2023-04-11T00:20:34.075Z,64.11
2023-04-11T00:23:01.178Z,64.04
2023-04-11T00:25:29.956Z,64.09
2023-04-11T00:27:57.106Z,64.27
2023-04-11T00:30:23.913Z,64.30
2023-04-11T00:32:51.056Z,64.33
2023-04-11T00:35:17.959Z,64.45
2023-04-11T00:37:45.714Z,64.26
2023-04-11T00:40:17.800Z,64.32
2023-04-11T00:42:44.539Z,64.62
2023-04-11T00:45:11.874Z,64.70
2023-04-11T00:47:38.930Z,64.91
2023-04-11T00:50:06.678Z,64.98
2023-04-11T00:52:34.448Z,65.28
2023-04-11T00:55:04.511Z,65.27
2023-04-11T00:57:32.310Z,65.45
2023-04-11T01:00:01.889Z,65.68
2023-04-11T01:02:29.747Z,65.57
2023-04-11T01:04:57.117Z,65.64
2023-04-11T01:07:24.873Z,65.76
2023-04-11T01:09:52.606Z,65.71
2023-04-11T01:12:21.545Z,65.15
2023-04-11T01:14:48.828Z,65.15
2023-04-11T01:17:16.273Z,64.95
2023-04-11T01:19:43.243Z,65.08
2023-04-11T01:22:11.527Z,65.04
2023-04-11T01:24:38.370Z,65.15
2023-04-11T01:27:05.142Z,65.24
2023-04-11T01:29:32.104Z,65.13
2023-04-11T01:31:58.831Z,64.91
2023-04-11T01:34:28.448Z,64.79
2023-04-11T01:36:55.823Z,64.63
2023-04-11T01:39:22.637Z,64.49
2023-04-11T01:41:50.820Z,64.50
2023-04-11T01:44:19.231Z,64.41
2023-04-11T01:46:46.852Z,64.46
2023-04-11T01:49:17.795Z,64.36
2023-04-11T01:51:45.818Z,64.45
2023-04-11T01:54:12.591Z,64.49
2023-04-11T01:56:39.335Z,64.62
2023-04-11T01:59:06.154Z,64.85
2023-04-11T02:01:34.287Z,64.62
2023-04-11T02:04:01.714Z,64.41
2023-04-11T02:06:28.658Z,64.42
2023-04-11T02:08:55.826Z,64.17
2023-04-11T02:11:22.811Z,64.30
2023-04-11T02:13:49.850Z,64.12
2023-04-11T02:16:18.172Z,64.29
2023-04-11T02:18:45.881Z,64.25
2023-04-11T02:21:12.804Z,63.92
2023-04-11T02:23:39.597Z,63.77
2023-04-11T02:26:06.380Z,63.56
2023-04-11T02:28:33.147Z,63.36
2023-04-11T02:30:59.963Z,63.26
2023-04-11T02:33:27.128Z,63.09
2023-04-11T02:35:53.945Z,63.04
2023-04-11T02:38:21.246Z,62.94
2023-04-11T02:40:48.087Z,62.93
2023-04-11T02:43:16.275Z,62.80
2023-04-11T02:45:43.185Z,62.73
2023-04-11T02:48:09.881Z,62.70
2023-04-11T02:50:36.649Z,62.68
2023-04-11T02:53:03.522Z,62.60
2023-04-11T02:55:30.204Z,62.54
2023-04-11T02:57:56.962Z,62.49
2023-04-11T03:00:23.717Z,62.43
2023-04-11T03:02:50.774Z,62.38
2023-04-11T03:05:17.592Z,62.42
2023-04-11T03:07:44.749Z,62.53
2023-04-11T03:10:11.456Z,62.63
2023-04-11T03:12:38.307Z,62.63
2023-04-11T03:15:05.422Z,62.74
2023-04-11T03:17:32.343Z,62.66
2023-04-11T03:19:59.068Z,62.73
2023-04-11T03:22:26.030Z,62.78
2023-04-11T03:24:52.770Z,62.84
2023-04-11T03:27:19.512Z,63.49
2023-04-11T03:29:46.277Z,63.15
2023-04-11T03:32:13.072Z,63.10
2023-04-11T03:34:39.825Z,62.97
2023-04-11T03:37:06.686Z,63.03
2023-04-11T03:39:33.418Z,63.00
2023-04-11T03:42:01.848Z,62.95
2023-04-11T03:44:28.650Z,62.89
2023-04-11T03:46:55.576Z,62.78
2023-04-11T03:49:22.381Z,62.91
2023-04-11T03:51:49.161Z,62.78
2023-04-11T03:54:15.923Z,62.72
2023-04-11T03:56:42.709Z,62.67
2023-04-11T03:59:09.424Z,62.60
2023-04-11T04:01:38.178Z,62.59
2023-04-11T04:04:05.783Z,62.56
2023-04-11T04:06:32.766Z,62.57
2023-04-11T04:09:03.937Z,62.55
2023-04-11T04:11:30.775Z,62.53
2023-04-11T04:13:57.727Z,62.56
2023-04-11T04:16:24.744Z,62.51
2023-04-11T04:18:51.835Z,62.51
2023-04-11T04:21:18.611Z,62.54
2023-04-11T04:23:47.718Z,62.60
2023-04-11T04:26:17.818Z,62.60
2023-04-11T04:28:47.427Z,62.65
2023-04-11T04:31:15.584Z,62.64
2023-04-11T04:33:43.029Z,62.75
2023-04-11T04:36:12.540Z,62.80
2023-04-11T04:38:42.303Z,63.07
2023-04-11T04:41:15.223Z,63.06
2023-04-11T04:43:42.675Z,62.88
2023-04-11T04:46:10.105Z,62.74
2023-04-11T04:48:36.950Z,62.73
2023-04-11T04:51:05.390Z,62.68
2023-04-11T04:53:34.913Z,62.74
2023-04-11T04:56:02.327Z,62.78
2023-04-11T04:58:29.238Z,62.79
2023-04-11T05:00:56.516Z,62.88
2023-04-11T05:03:23.629Z,62.95
2023-04-11T05:05:50.624Z,62.92
2023-04-11T05:08:20.635Z,62.82
2023-04-11T05:10:47.451Z,62.68
2023-04-11T05:13:14.285Z,62.65
2023-04-11T05:15:47.813Z,62.55
2023-04-11T05:18:14.702Z,62.50
2023-04-11T05:20:41.650Z,62.44
2023-04-11T05:23:08.423Z,62.41
2023-04-11T05:25:35.277Z,62.35
2023-04-11T05:28:02.042Z,62.30
2023-04-11T05:30:28.846Z,62.25
2023-04-11T05:32:56.152Z,62.29
2023-04-11T05:35:22.982Z,62.29
2023-04-11T05:37:49.774Z,62.32
2023-04-11T05:40:16.820Z,62.25
2023-04-11T05:42:43.504Z,62.20
2023-04-11T05:45:10.626Z,62.19
2023-04-11T05:47:37.442Z,62.17
2023-04-11T05:50:04.402Z,62.19
2023-04-11T05:52:31.121Z,62.26
2023-04-11T05:54:57.853Z,62.26
2023-04-11T05:57:24.708Z,62.17
2023-04-11T05:59:53.004Z,62.14
2023-04-11T06:02:19.997Z,62.11
2023-04-11T06:04:46.847Z,62.04
2023-04-11T06:07:13.979Z,62.00
2023-04-11T06:09:42.525Z,61.96
2023-04-11T06:12:09.983Z,61.94
2023-04-11T06:14:39.549Z,61.86
2023-04-11T06:17:07.146Z,61.80
2023-04-11T06:19:33.918Z,61.69
2023-04-11T06:22:00.648Z,61.62
2023-04-11T06:24:38.440Z,61.50
2023-04-11T06:27:06.272Z,61.40
2023-04-11T06:29:33.008Z,61.37
2023-04-11T06:31:59.821Z,61.34
2023-04-11T06:34:26.556Z,61.29
2023-04-11T06:36:53.665Z,61.34
2023-04-11T06:39:20.566Z,61.30
2023-04-11T06:41:48.050Z,61.22
2023-04-11T06:44:15.189Z,61.22
2023-04-11T06:46:42.031Z,61.21
2023-04-11T06:49:10.328Z,61.14
2023-04-11T06:51:37.022Z,61.06
2023-04-11T06:54:04.393Z,61.01
2023-04-11T06:56:31.188Z,60.88
2023-04-11T06:58:58.135Z,60.68
2023-04-11T07:01:33.900Z,60.48
2023-04-11T07:04:01.017Z,60.29
2023-04-11T07:06:28.533Z,60.12
2023-04-11T07:08:55.357Z,59.88
2023-04-11T07:11:22.127Z,59.67
2023-04-11T07:13:49.902Z,59.51
2023-04-11T07:16:16.684Z,59.28
2023-04-11T07:18:43.985Z,59.06
2023-04-11T07:21:14.506Z,58.86
2023-04-11T07:23:42.570Z,58.69
2023-04-11T07:26:11.095Z,58.53
2023-04-11T07:28:38.888Z,58.36
2023-04-11T07:31:09.773Z,58.11
2023-04-11T07:33:37.731Z,58.16
2023-04-11T07:36:05.949Z,57.95
2023-04-11T07:38:34.199Z,57.62
2023-04-11T07:41:02.762Z,57.46
2023-04-11T07:43:29.770Z,57.26
2023-04-11T07:45:57.680Z,57.12
2023-04-11T07:48:26.921Z,57.03
2023-04-11T07:50:54.681Z,56.84
2023-04-11T07:53:22.417Z,56.70
2023-04-11T07:55:49.273Z,56.60
2023-04-11T07:58:16.156Z,56.48
2023-04-11T08:00:43.080Z,56.38
2023-04-11T08:03:13.480Z,56.32
2023-04-11T08:05:40.495Z,56.22
2023-04-11T08:08:07.853Z,56.15
2023-04-11T08:10:34.782Z,55.98
2023-04-11T08:13:01.532Z,55.84
2023-04-11T08:15:28.449Z,55.76
2023-04-11T08:17:56.679Z,55.65
2023-04-11T08:20:24.557Z,55.55
2023-04-11T08:22:51.354Z,55.48
2023-04-11T08:25:22.892Z,55.43
2023-04-11T08:27:50.890Z,55.26
2023-04-11T08:30:18.020Z,55.19
2023-04-11T08:32:44.847Z,55.08
2023-04-11T08:35:11.619Z,54.98
2023-04-11T08:37:38.398Z,54.81
2023-04-11T08:40:07.071Z,54.59
2023-04-11T08:42:35.604Z,54.60
2023-04-11T08:45:05.241Z,54.33
2023-04-11T08:47:32.060Z,54.11
2023-04-11T08:49:58.781Z,53.93
2023-04-11T08:52:26.315Z,53.85
2023-04-11T08:54:55.166Z,53.68
2023-04-11T08:57:35.031Z,53.64
2023-04-11T09:00:10.045Z,53.67
2023-04-11T09:02:55.665Z,53.66
2023-04-11T09:05:33.816Z,53.67
2023-04-11T09:08:03.867Z,53.64
2023-04-11T09:10:30.656Z,53.60
2023-04-11T09:12:58.305Z,53.58
2023-04-11T09:15:27.930Z,53.68
2023-04-11T09:17:58.873Z,53.73
2023-04-11T09:20:30.238Z,53.78
2023-04-11T09:23:01.525Z,53.85
2023-04-11T09:25:28.671Z,53.90
2023-04-11T09:28:13.987Z,53.95
2023-04-11T09:30:52.734Z,54.15
2023-04-11T09:33:25.234Z,54.14
2023-04-11T09:35:53.679Z,54.00
2023-04-11T09:38:35.118Z,54.01
2023-04-11T09:41:03.625Z,53.95
2023-04-11T09:43:53.762Z,53.98
2023-04-11T09:46:21.647Z,53.99
2023-04-11T09:48:49.929Z,54.00
2023-04-11T09:51:34.135Z,53.98
2023-04-11T09:54:03.572Z,54.02
2023-04-11T09:56:31.757Z,54.05
2023-04-11T09:59:01.010Z,54.06
2023-04-11T10:01:28.252Z,54.11
2023-04-11T10:03:56.771Z,54.10
2023-04-11T10:06:40.519Z,54.07
2023-04-11T10:09:09.837Z,54.12
2023-04-11T10:11:37.006Z,53.98
2023-04-11T10:14:04.028Z,53.99
2023-04-11T10:16:34.146Z,53.94
2023-04-11T10:19:01.193Z,53.92
2023-04-11T10:21:30.993Z,54.01
2023-04-11T10:24:18.182Z,54.04
2023-04-11T10:27:03.218Z,54.07
2023-04-11T10:29:29.892Z,54.04
2023-04-11T10:32:19.029Z,54.09
2023-04-11T10:34:54.559Z,54.17
2023-04-11T10:37:30.476Z,54.22
2023-04-11T10:40:10.043Z,54.31
2023-04-11T10:42:42.411Z,54.40
2023-04-11T10:45:30.846Z,54.43
2023-04-11T10:47:57.669Z,54.53
2023-04-11T10:50:27.486Z,54.64
2023-04-11T10:52:59.480Z,54.71
2023-04-11T10:55:28.679Z,54.81
2023-04-11T10:58:19.799Z,54.99
2023-04-11T11:00:46.772Z,55.23
2023-04-11T11:03:25.625Z,55.34
2023-04-11T11:06:01.046Z,55.45
2023-04-11T11:08:33.677Z,55.57
2023-04-11T11:11:02.131Z,55.69
2023-04-11T11:13:42.939Z,55.77
2023-04-11T11:16:15.926Z,55.89
2023-04-11T11:18:46.530Z,55.92
2023-04-11T11:21:20.627Z,55.96
2023-04-11T11:24:01.584Z,56.14
2023-04-11T11:26:42.704Z,56.26
2023-04-11T11:29:10.720Z,56.36
2023-04-11T11:31:45.931Z,56.40
2023-04-11T11:34:23.552Z,56.52
2023-04-11T11:36:51.473Z,56.65
2023-04-11T11:39:19.925Z,56.74
2023-04-11T11:41:48.679Z,56.82
2023-04-11T11:44:26.651Z,56.87
2023-04-11T11:47:15.482Z,56.84
2023-04-11T11:49:49.851Z,56.95
2023-04-11T11:52:37.024Z,56.91
2023-04-11T11:55:06.834Z,56.98
2023-04-11T11:57:37.307Z,57.10
2023-04-11T12:00:10.274Z,57.20
2023-04-11T12:02:39.425Z,57.21
2023-04-11T12:05:07.590Z,57.29
2023-04-11T12:07:38.527Z,57.28
2023-04-11T12:10:11.998Z,57.53
2023-04-11T12:12:41.189Z,58.00
2023-04-11T12:15:17.026Z,58.14
2023-04-11T12:17:48.193Z,57.75
2023-04-11T12:20:15.882Z,57.56
2023-04-11T12:22:42.772Z,57.47
2023-04-11T12:25:14.091Z,57.41
2023-04-11T12:27:42.883Z,57.38
2023-04-11T12:30:11.683Z,57.30
2023-04-11T12:32:38.724Z,57.24
2023-04-11T12:35:06.732Z,57.15
2023-04-11T12:37:34.664Z,57.08
2023-04-11T12:40:02.235Z,57.04
2023-04-11T12:42:28.988Z,57.00
2023-04-11T12:44:55.756Z,56.96
2023-04-11T12:47:22.516Z,56.90
2023-04-11T12:49:49.293Z,56.88
2023-04-11T12:52:16.387Z,56.84
2023-04-11T12:54:43.205Z,56.80
2023-04-11T12:57:09.952Z,56.71
2023-04-11T12:59:36.735Z,56.62
2023-04-11T13:02:03.598Z,56.57
2023-04-11T13:04:30.750Z,56.55
2023-04-11T13:07:01.397Z,56.52
2023-04-11T13:09:34.338Z,56.45
2023-04-11T13:12:04.178Z,56.40
2023-04-11T13:14:31.091Z,56.39
2023-04-11T13:16:57.995Z,56.42
2023-04-11T13:19:25.054Z,56.41
2023-04-11T13:21:51.845Z,56.43
2023-04-11T13:24:18.641Z,56.43
2023-04-11T13:26:45.756Z,56.71
2023-04-11T13:29:12.518Z,56.90
2023-04-11T13:31:39.444Z,57.13
2023-04-11T13:34:06.185Z,57.32
2023-04-11T13:36:33.084Z,57.61
2023-04-11T13:38:59.968Z,57.89
2023-04-11T13:41:26.855Z,57.89
2023-04-11T13:43:54.124Z,57.86
2023-04-11T13:46:21.886Z,58.18
2023-04-11T13:48:48.846Z,58.31
2023-04-11T13:51:15.630Z,58.40
2023-04-11T13:53:42.364Z,58.75
2023-04-11T13:56:09.170Z,58.93
2023-04-11T13:58:36.970Z,58.81
2023-04-11T14:01:04.293Z,58.98
2023-04-11T14:03:33.594Z,59.08
2023-04-11T14:06:01.715Z,59.26
2023-04-11T14:08:29.170Z,59.27
2023-04-11T14:10:56.432Z,59.66
2023-04-11T14:13:23.240Z,59.82
2023-04-11T14:16:04.931Z,59.97
2023-04-11T14:18:35.680Z,59.90
2023-04-11T14:21:02.552Z,59.96
2023-04-11T14:23:29.630Z,60.11
2023-04-11T14:25:56.840Z,60.18
2023-04-11T14:28:26.474Z,60.25
2023-04-11T14:30:54.175Z,60.16
2023-04-11T14:33:21.226Z,60.14
2023-04-11T14:35:48.218Z,60.26
2023-04-11T14:38:15.941Z,60.46
2023-04-11T14:40:43.247Z,60.60
2023-04-11T14:43:10.154Z,60.48
2023-04-11T14:45:37.144Z,60.53
2023-04-11T14:48:04.112Z,60.62
2023-04-11T14:50:30.988Z,60.55
2023-04-11T14:52:57.791Z,60.47
2023-04-11T14:55:24.528Z,60.54
2023-04-11T14:57:53.589Z,60.62
2023-04-11T15:00:21.930Z,60.48
2023-04-11T15:02:51.352Z,60.44
2023-04-11T15:05:19.707Z,60.47
2023-04-11T15:07:48.382Z,60.62
2023-04-11T15:10:17.935Z,60.74
2023-04-11T15:12:44.763Z,60.85
2023-04-11T15:15:12.210Z,60.96
2023-04-11T15:17:43.746Z,60.98
2023-04-11T15:20:11.992Z,61.09
2023-04-11T15:22:41.406Z,61.07
2023-04-11T15:25:11.422Z,61.13
2023-04-11T15:27:38.627Z,61.31
2023-04-11T15:30:06.208Z,61.50
2023-04-11T15:32:33.321Z,61.75
2023-04-11T15:35:00.363Z,61.79
2023-04-11T15:37:27.244Z,61.79
2023-04-11T15:39:54.409Z,61.79
2023-04-11T15:42:21.407Z,61.63
2023-04-11T15:44:48.175Z,61.32
2023-04-11T15:47:16.590Z,61.32
2023-04-11T15:49:43.727Z,61.55
2023-04-11T15:52:11.225Z,61.43
2023-04-11T15:54:37.982Z,61.48
2023-04-11T15:57:04.833Z,61.50
2023-04-11T15:59:31.603Z,61.80
2023-04-11T16:01:58.382Z,62.12
2023-04-11T16:04:25.689Z,62.25
2023-04-11T16:06:52.677Z,62.63
2023-04-11T16:09:19.438Z,62.65
2023-04-11T16:11:46.194Z,62.76
2023-04-11T16:14:13.266Z,62.68
2023-04-11T16:16:40.073Z,62.36
2023-04-11T16:19:07.321Z,62.35
2023-04-11T16:21:34.060Z,62.41
2023-04-11T16:24:00.921Z,62.73
2023-04-11T16:26:27.743Z,62.88
2023-04-11T16:28:54.484Z,62.84
2023-04-11T16:31:24.693Z,62.57
2023-04-11T16:33:52.967Z,62.62
2023-04-11T16:36:20.476Z,62.75
2023-04-11T16:38:49.594Z,62.79
2023-04-11T16:41:17.422Z,62.94
2023-04-11T16:43:44.645Z,63.09
2023-04-11T16:46:15.401Z,63.14
2023-04-11T16:48:43.337Z,63.12
2023-04-11T16:51:12.109Z,63.08
2023-04-11T16:53:41.933Z,62.92
2023-04-11T16:56:09.242Z,62.78
2023-04-11T16:58:37.519Z,62.72
2023-04-11T17:01:04.522Z,62.92
2023-04-11T17:03:31.407Z,63.02
2023-04-11T17:05:58.338Z,63.02
2023-04-11T17:08:26.520Z,62.91
2023-04-11T17:10:53.568Z,62.90
2023-04-11T17:13:20.280Z,62.89
2023-04-11T17:15:47.010Z,62.83
2023-04-11T17:18:15.018Z,62.79
2023-04-11T17:20:43.473Z,62.73
2023-04-11T17:23:10.447Z,62.74
2023-04-11T17:25:37.376Z,62.76
2023-04-11T17:28:04.279Z,62.81
2023-04-11T17:30:32.150Z,62.82
2023-04-11T17:32:59.806Z,62.77
2023-04-11T17:35:28.050Z,62.85
2023-04-11T17:37:55.362Z,62.92
2023-04-11T17:40:22.261Z,63.10
2023-04-11T17:42:49.809Z,63.12
2023-04-11T17:45:18.646Z,63.01
2023-04-11T17:47:47.422Z,63.04
2023-04-11T17:50:14.886Z,63.00
2023-04-11T17:52:43.770Z,63.04
2023-04-11T17:55:13.195Z,63.06
2023-04-11T17:57:40.462Z,63.08
2023-04-11T18:00:19.883Z,63.21
2023-04-11T18:02:48.803Z,63.24
2023-04-11T18:05:23.916Z,63.42
2023-04-11T18:07:52.796Z,63.35
2023-04-11T18:10:22.034Z,63.36
2023-04-11T18:12:51.577Z,63.42
2023-04-11T18:15:19.096Z,63.34
2023-04-11T18:17:46.073Z,63.40
2023-04-11T18:20:14.167Z,63.37
2023-04-11T18:23:03.733Z,63.47
2023-04-11T18:25:30.787Z,63.55
2023-04-11T18:27:57.823Z,63.55
2023-04-11T18:30:24.688Z,63.62
2023-04-11T18:32:54.310Z,63.59
2023-04-11T18:35:21.965Z,63.71
2023-04-11T18:37:48.793Z,63.88
2023-04-11T18:40:16.844Z,64.19
2023-04-11T18:42:50.486Z,64.27
2023-04-11T18:45:18.364Z,64.35
2023-04-11T18:47:46.489Z,64.23
2023-04-11T18:50:14.369Z,64.14
2023-04-11T18:52:42.648Z,64.22
2023-04-11T18:55:10.572Z,64.17
2023-04-11T18:57:38.710Z,64.21
2023-04-11T19:00:25.290Z,64.30
2023-04-11T19:02:52.891Z,64.23
2023-04-11T19:05:20.621Z,64.14
2023-04-11T19:07:47.703Z,64.11
2023-04-11T19:10:14.745Z,64.19
2023-04-11T19:12:41.921Z,64.14
2023-04-11T19:15:09.724Z,64.10
2023-04-11T19:17:38.969Z,64.11
2023-04-11T19:20:12.988Z,64.18
2023-04-11T19:22:41.476Z,64.32
2023-04-11T19:25:14.198Z,64.43
2023-04-11T19:27:42.545Z,64.66
2023-04-11T19:30:11.764Z,64.77
2023-04-11T19:32:41.391Z,64.55
2023-04-11T19:35:10.611Z,64.15
2023-04-11T19:37:38.339Z,63.90
2023-04-11T19:40:07.287Z,63.63
2023-04-11T19:42:37.491Z,63.30
2023-04-11T19:45:05.725Z,62.20
2023-04-11T19:47:33.637Z,62.12
2023-04-11T19:50:04.399Z,61.67
2023-04-11T19:52:31.713Z,61.36
2023-04-11T19:54:59.326Z,61.41
2023-04-11T19:57:27.992Z,61.60
2023-04-11T19:59:55.554Z,61.30
2023-04-11T20:02:23.228Z,61.79
2023-04-11T20:04:50.661Z,61.79
2023-04-11T20:07:17.767Z,61.87
2023-04-11T20:09:46.961Z,62.05
2023-04-11T20:12:14.630Z,61.92
2023-04-11T20:14:41.832Z,62.09
2023-04-11T20:17:09.327Z,61.78
2023-04-11T20:19:38.124Z,61.58
2023-04-11T20:22:05.734Z,61.47
2023-04-11T20:24:34.082Z,60.86
2023-04-11T20:27:01.755Z,60.96
2023-04-11T20:29:32.628Z,61.10
2023-04-11T20:31:59.947Z,60.90
2023-04-11T20:34:26.820Z,61.05
2023-04-11T20:36:53.554Z,60.74
2023-04-11T20:39:20.367Z,60.81
2023-04-11T20:41:49.741Z,60.95
2023-04-11T20:44:21.264Z,61.21
2023-04-11T20:46:48.144Z,60.73
2023-04-11T20:49:15.524Z,60.71
2023-04-11T20:51:43.899Z,60.61
2023-04-11T20:54:11.200Z,60.73
2023-04-11T20:56:38.376Z,61.09
2023-04-11T20:59:05.188Z,61.45
2023-04-11T21:01:32.848Z,61.62
2023-04-11T21:04:03.558Z,61.57
2023-04-11T21:06:31.822Z,61.51
2023-04-11T21:09:02.666Z,61.85
2023-04-11T21:11:29.445Z,61.83
2023-04-11T21:13:56.442Z,62.13
2023-04-11T21:16:23.632Z,62.23
2023-04-11T21:18:50.701Z,62.20
2023-04-11T21:21:17.495Z,62.35
2023-04-11T21:23:44.221Z,62.29
2023-04-11T21:26:11.819Z,62.31
2023-04-11T21:28:38.751Z,62.30
2023-04-11T21:31:05.899Z,62.45
2023-04-11T21:33:32.799Z,62.57
2023-04-11T21:35:59.684Z,62.60
2023-04-11T21:38:26.482Z,62.29
2023-04-11T21:40:53.249Z,62.45
2023-04-11T21:43:19.975Z,62.83
2023-04-11T21:45:46.663Z,62.64
2023-04-11T21:48:13.419Z,62.63
2023-04-11T21:50:40.540Z,62.65
2023-04-11T21:53:07.341Z,62.50
2023-04-11T21:55:34.290Z,62.80
2023-04-11T21:58:01.016Z,62.66
2023-04-11T22:00:27.740Z,62.67
2023-04-11T22:02:54.750Z,62.90
2023-04-11T22:05:22.202Z,62.89
2023-04-11T22:07:50.455Z,62.86
2023-04-11T22:10:23.626Z,63.11
2023-04-11T22:12:53.900Z,62.98
2023-04-11T22:15:20.838Z,62.84
2023-04-11T22:17:50.627Z,62.79
2023-04-11T22:20:18.451Z,62.62
2023-04-11T22:22:45.397Z,62.67
2023-04-11T22:25:12.307Z,62.59
2023-04-11T22:27:39.136Z,62.57
2023-04-11T22:30:07.410Z,62.30
2023-04-11T22:32:34.662Z,62.16
2023-04-11T22:35:01.609Z,62.00
2023-04-11T22:37:28.395Z,61.53
2023-04-11T22:39:55.222Z,61.54
2023-04-11T22:42:21.963Z,61.44
2023-04-11T22:44:48.730Z,61.32
2023-04-11T22:47:16.564Z,61.37
2023-04-11T22:49:44.889Z,61.50
2023-04-11T22:52:15.590Z,61.59
2023-04-11T22:54:43.287Z,61.66
2023-04-11T22:57:10.189Z,61.23
2023-04-11T22:59:36.974Z,61.24
2023-04-11T23:02:04.038Z,61.18
2023-04-11T23:04:32.038Z,61.34
2023-04-11T23:06:59.328Z,61.04
2023-04-11T23:09:26.569Z,61.46
2023-04-11T23:11:53.629Z,61.71
2023-04-11T23:14:22.357Z,61.69
2023-04-11T23:16:49.287Z,61.63
2023-04-11T23:19:17.194Z,61.67
2023-04-11T23:21:44.642Z,61.81
2023-04-11T23:24:11.366Z,61.42
2023-04-11T23:26:38.099Z,61.59
2023-04-11T23:29:04.854Z,61.54
2023-04-11T23:31:32.664Z,61.62
2023-04-11T23:34:00.605Z,61.83
2023-04-11T23:36:28.070Z,61.49
2023-04-11T23:38:55.240Z,61.46
2023-04-11T23:41:22.023Z,61.48
2023-04-11T23:43:48.822Z,61.16
2023-04-11T23:46:18.174Z,61.31
2023-04-11T23:48:46.986Z,61.23
2023-04-11T23:51:14.050Z,61.31
2023-04-11T23:53:41.189Z,61.43
2023-04-11T23:56:09.151Z,61.43
2023-04-11T23:58:36.018Z,61.04
